This is the latest recevied weather packets stored in our database for station/object KN6CRX. If no packets are shown the sender has not sent any weather packets the latest 10 day(s).
| Time | Temp. | Humidity | Pressure | Rain* | Wind** | Luminosity | Snow |
|---|---|---|---|---|---|---|---|
| 1787535985 | 22.22° C | 53% | 1020.7 hPa | 0 mm | - | 4 W/m² | - |
| 1787535684 | 21.67° C | 56% | 1020.9 hPa | 0 mm | - | 3 W/m² | - |
| 1787535381 | 21.67° C | 56% | 1021 hPa | 0 mm | - | 3 W/m² | - |
| 1787535076 | 21.67° C | 54% | 1020.8 hPa | 0 mm | - | 3 W/m² | - |
| 1787534774 | 22.22° C | 53% | 1020.3 hPa | 0 mm | - | 5 W/m² | - |
| 1787534474 | 22.22° C | 51% | 1020.5 hPa | 0 mm | - | 9 W/m² | - |
| 1787534167 | 22.78° C | 51% | 1020.6 hPa | 0 mm | - | 14 W/m² | - |
| 1787533864 | 23.89° C | 45% | 1021 hPa | 0 mm | - | 16 W/m² | - |
| 1787533560 | 25° C | 43% | 1021.5 hPa | 0 mm | - | 8 W/m² | - |
| 1787533256 | 25.56° C | 34% | 1021 hPa | 0 mm | - | 7 W/m² | - |
| 1787532951 | 26.11° C | 33% | 1020.7 hPa | 0 mm | - | 8 W/m² | - |
| 1787532646 | 26.11° C | 33% | 1020.5 hPa | 0 mm | - | 10 W/m² | - |
| 1787532342 | 26.67° C | 32% | 1020.5 hPa | 0 mm | - | 8 W/m² | - |
| 1787532038 | 26.67° C | 33% | 1020.1 hPa | 0 mm | - | 10 W/m² | - |
| 1787531734 | 26.67° C | 34% | 1020.1 hPa | 0 mm | - | 17 W/m² | - |
| 1787531429 | 26.67° C | 34% | 1020.2 hPa | 0 mm | - | 19 W/m² | - |
| 1787531125 | 27.22° C | 34% | 1020.2 hPa | 0 mm | - | 28 W/m² | - |
| 1787530821 | 27.22° C | 33% | 1019.9 hPa | 0 mm | - | 35 W/m² | - |
| 1787530521 | 27.78° C | 32% | 1019.9 hPa | 0 mm | - | 40 W/m² | - |
| 1787530221 | 28.33° C | 31% | 1019.7 hPa | 0 mm | - | 41 W/m² | - |
| 1787529917 | 28.89° C | 31% | 1020 hPa | 0 mm | - | 63 W/m² | - |
| 1787529612 | 29.44° C | 30% | 1019.8 hPa | 0 mm | - | 60 W/m² | - |
| 1787529307 | 30° C | 30% | 1019.5 hPa | 0 mm | - | 44 W/m² | - |
| 1787529001 | 30.56° C | 29% | 1019.2 hPa | 0 mm | - | 55 W/m² | - |
| 1787528699 | 31.11° C | 28% | 1019.1 hPa | 0 mm | - | 66 W/m² | - |
* Rain latest hour (hover to see other rain measurements)
** Current wind speed in m/s (hover to see current wind gust speed)